Time;durP1;ratioP1;P1;durP2;ratioP2;P2;SDS_P1;SDS_P2;PMS_P1;PMS_P2;Temp;Humidity;BMP_temperature;BMP_pressure;BME280_temperature;BME280_humidity;BME280_pressure;Samples;Min_cycle;Max_cycle;Signal;HPM_P1;HPM_P2
2022/04/29 00:00:54;;;;;;;9.95;5.55;;;8.10;95.10;;;;;;5000009;28;93942;-70
2022/04/29 00:03:22;;;;;;;7.55;5.68;;;8.10;95.10;;;;;;5033548;28;93418;-70
2022/04/29 00:05:49;;;;;;;8.57;5.40;;;8.00;95.20;;;;;;5016891;28;94802;-70
2022/04/29 00:08:17;;;;;;;11.57;5.60;;;8.10;95.20;;;;;;5001588;28;92602;-70
2022/04/29 00:10:44;;;;;;;9.77;5.20;;;8.00;95.20;;;;;;5001198;28;92800;-70
2022/04/29 00:13:14;;;;;;;10.00;5.13;;;8.00;95.30;;;;;;5000257;28;95672;-70
2022/04/29 00:15:41;;;;;;;9.00;5.80;;;8.00;95.30;;;;;;5001159;28;95421;-70
2022/04/29 00:18:09;;;;;;;11.30;6.38;;;8.00;95.30;;;;;;5000493;28;92450;-70
2022/04/29 00:20:36;;;;;;;10.20;5.97;;;8.00;95.40;;;;;;5032809;28;92513;-70
2022/04/29 00:23:03;;;;;;;9.57;6.03;;;8.00;95.40;;;;;;5001394;28;93179;-70
2022/04/29 00:25:30;;;;;;;10.30;5.47;;;8.00;95.40;;;;;;4999956;28;94141;-70
2022/04/29 00:27:58;;;;;;;11.07;5.57;;;8.00;95.40;;;;;;4999756;28;92419;-70
2022/04/29 00:30:25;;;;;;;10.13;5.88;;;8.00;95.40;;;;;;5001876;28;91804;-70
2022/04/29 00:32:52;;;;;;;8.90;5.88;;;8.00;95.40;;;;;;4999486;28;95764;-70
2022/04/29 00:35:19;;;;;;;8.82;5.85;;;8.00;95.40;;;;;;5012749;28;92891;-70
2022/04/29 00:37:50;;;;;;;9.40;6.22;;;8.00;95.40;;;;;;4996653;28;94825;-70
2022/04/29 00:40:19;;;;;;;10.40;5.90;;;8.00;95.40;;;;;;4996740;28;92415;-70
2022/04/29 00:42:47;;;;;;;9.60;6.03;;;8.00;95.40;;;;;;4996081;28;95560;-70
2022/04/29 00:45:17;;;;;;;13.60;6.25;;;8.00;95.50;;;;;;4996444;28;95536;-70
2022/04/29 00:47:45;;;;;;;9.07;5.93;;;8.00;95.40;;;;;;5029771;28;92539;-70
2022/04/29 00:50:16;;;;;;;12.85;6.10;;;8.00;95.40;;;;;;4996393;28;92472;-70
2022/04/29 00:52:46;;;;;;;12.90;7.00;;;8.00;95.40;;;;;;4996006;28;95976;-70
2022/04/29 00:55:14;;;;;;;12.02;6.45;;;8.00;95.30;;;;;;4996574;28;93990;-70
2022/04/29 00:57:41;;;;;;;13.98;6.78;;;8.00;95.40;;;;;;4996170;28;92366;-70
2022/04/29 01:00:11;;;;;;;8.93;6.18;;;8.00;95.40;;;;;;4996244;28;92975;-70
2022/04/29 01:02:41;;;;;;;12.65;7.18;;;8.00;95.70;;;;;;4994632;28;98287;-70
2022/04/29 01:05:11;;;;;;;13.63;6.93;;;8.00;95.40;;;;;;4997444;28;95537;-70
2022/04/29 01:07:41;;;;;;;10.45;6.68;;;8.00;95.50;;;;;;5012884;28;92517;-70
2022/04/29 01:10:10;;;;;;;11.75;6.55;;;7.90;95.50;;;;;;4996242;28;92485;-70
2022/04/29 01:12:39;;;;;;;12.60;6.75;;;7.90;95.50;;;;;;5029153;28;93384;-70
2022/04/29 01:15:09;;;;;;;16.60;7.28;;;7.90;95.50;;;;;;4995842;28;95751;-70
2022/04/29 01:17:37;;;;;;;10.48;6.85;;;7.90;95.60;;;;;;4996111;28;92543;-70
2022/04/29 01:20:07;;;;;;;12.23;6.82;;;7.90;95.60;;;;;;4997091;28;91673;-70
2022/04/29 01:22:34;;;;;;;10.10;6.35;;;7.90;95.60;;;;;;5012234;28;95935;-70
2022/04/29 01:25:03;;;;;;;10.75;6.80;;;7.90;95.60;;;;;;4995936;28;93085;-70
2022/04/29 01:27:31;;;;;;;10.68;6.50;;;7.80;95.70;;;;;;5011152;28;94861;-70
2022/04/29 01:30:00;;;;;;;11.95;6.50;;;7.80;95.70;;;;;;4995697;28;93057;-70
2022/04/29 01:32:31;;;;;;;11.15;7.45;;;7.80;95.70;;;;;;4995697;28;95743;-70
2022/04/29 01:34:59;;;;;;;10.40;6.47;;;7.80;95.60;;;;;;4995231;28;95428;-70
2022/04/29 01:37:26;;;;;;;14.93;7.25;;;7.80;95.70;;;;;;4979245;28;92474;-70
2022/04/29 01:39:53;;;;;;;16.27;7.32;;;7.70;95.70;;;;;;5012110;28;92415;-70
2022/04/29 01:42:22;;;;;;;12.75;8.27;;;7.70;95.80;;;;;;5028848;28;94282;-70
2022/04/29 01:44:53;;;;;;;12.95;7.53;;;7.70;95.80;;;;;;5012530;28;95829;-70
2022/04/29 01:47:20;;;;;;;15.70;7.75;;;7.70;95.80;;;;;;5011318;28;92447;-70
2022/04/29 01:50:23;;;;;;;13.02;7.18;;;7.60;95.90;;;;;;4946612;28;92591;-70
2022/04/29 01:52:50;;;;;;;11.05;7.20;;;7.60;96.00;;;;;;4981944;28;97937;-70
2022/04/29 01:55:17;;;;;;;16.45;7.38;;;7.60;96.00;;;;;;5011745;28;97362;-70
2022/04/29 01:57:49;;;;;;;13.23;7.03;;;7.60;96.00;;;;;;4995448;28;92619;-71
2022/04/29 02:00:17;;;;;;;18.23;7.63;;;7.60;96.00;;;;;;4995263;28;92393;-71
2022/04/29 02:02:49;;;;;;;11.95;6.95;;;7.60;96.10;;;;;;4994892;28;95358;-71
2022/04/29 02:05:18;;;;;;;12.32;7.20;;;7.60;96.10;;;;;;4978390;28;95537;-71
2022/04/29 02:07:46;;;;;;;9.88;7.43;;;7.60;96.00;;;;;;4995228;28;92581;-71
2022/04/29 02:10:15;;;;;;;12.80;7.32;;;7.60;96.10;;;;;;5011880;28;91821;-71
2022/04/29 02:12:43;;;;;;;13.20;7.00;;;7.60;96.00;;;;;;4994914;28;95532;-71
2022/04/29 02:15:31;;;;;;;19.38;7.38;;;7.60;96.10;;;;;;4984221;28;92822;-71
2022/04/29 02:18:02;;;;;;;11.30;7.25;;;7.50;96.20;;;;;;5027389;28;94768;-71
2022/04/29 02:20:30;;;;;;;15.00;7.95;;;7.50;96.20;;;;;;5011313;28;92466;-71
2022/04/29 02:22:57;;;;;;;15.75;7.70;;;7.50;96.10;;;;;;5011479;28;95762;-71
2022/04/29 02:25:24;;;;;;;11.70;7.13;;;7.50;96.20;;;;;;4994981;28;95238;-71
2022/04/29 02:27:52;;;;;;;13.82;7.75;;;7.50;96.20;;;;;;4994598;28;93331;-71
2022/04/29 02:30:19;;;;;;;11.90;7.90;;;7.50;96.30;;;;;;4994705;28;92506;-71
2022/04/29 02:32:46;;;;;;;16.77;8.38;;;7.50;96.30;;;;;;4994814;28;95957;-71
2022/04/29 02:35:14;;;;;;;15.20;7.70;;;7.50;96.40;;;;;;4978367;28;95590;-71
2022/04/29 02:37:41;;;;;;;13.15;8.23;;;7.40;96.30;;;;;;5011240;28;92488;-71
2022/04/29 02:40:09;;;;;;;15.98;8.07;;;7.50;96.40;;;;;;5010982;28;92569;-71
2022/04/29 02:42:37;;;;;;;12.90;7.78;;;7.40;96.40;;;;;;4992963;28;97855;-70
2022/04/29 02:45:05;;;;;;;13.48;7.25;;;7.40;96.40;;;;;;5010563;28;97912;-71
2022/04/29 02:47:41;;;;;;;14.55;7.90;;;7.40;96.40;;;;;;5010036;28;92561;-71
2022/04/29 02:50:09;;;;;;;15.00;7.63;;;7.40;96.70;;;;;;4994544;28;92901;-71
2022/04/29 02:52:37;;;;;;;17.05;10.02;;;7.40;96.40;;;;;;4994437;28;94258;-71
2022/04/29 02:55:04;;;;;;;17.80;8.98;;;7.40;96.40;;;;;;4993633;28;95513;-71
2022/04/29 02:57:44;;;;;;;15.43;8.40;;;7.40;96.50;;;;;;4994019;28;92589;-71
2022/04/29 03:00:12;;;;;;;17.75;11.20;;;7.40;96.40;;;;;;4994706;28;92169;-71
2022/04/29 03:02:39;;;;;;;10.52;8.00;;;7.50;96.40;;;;;;4977264;28;94560;-71
2022/04/29 03:05:07;;;;;;;14.27;7.93;;;7.40;96.40;;;;;;5010257;28;94856;-71
2022/04/29 03:07:34;;;;;;;13.95;8.45;;;7.40;96.30;;;;;;5009598;28;95047;-71
2022/04/29 03:10:05;;;;;;;14.60;8.55;;;7.50;96.40;;;;;;4994167;28;92447;-71
2022/04/29 03:12:32;;;;;;;15.00;8.57;;;7.50;96.40;;;;;;5010715;28;96019;-71
2022/04/29 03:15:16;;;;;;;12.00;7.97;;;7.40;96.40;;;;;;4994028;28;95325;-71
2022/04/29 03:20:41;;;;;;;13.75;7.88;;;7.40;96.40;;;;;;5007865;28;92549;-71
2022/04/29 03:23:08;;;;;;;14.43;8.55;;;7.40;96.50;;;;;;4993908;28;95600;-71
2022/04/29 03:25:41;;;;;;;12.90;9.02;;;7.40;96.50;;;;;;4994436;28;95591;-71
2022/04/29 03:28:08;;;;;;;15.98;8.63;;;7.30;96.50;;;;;;4994007;28;92562;-71
2022/04/29 03:30:36;;;;;;;14.10;8.68;;;7.30;96.50;;;;;;4993895;28;92534;-71
2022/04/29 03:33:06;;;;;;;17.25;8.55;;;7.30;96.60;;;;;;5025891;28;98025;-71
2022/04/29 03:35:44;;;;;;;16.17;8.75;;;7.30;96.60;;;;;;4995492;28;95342;-71
2022/04/29 03:38:17;;;;;;;15.40;8.73;;;7.30;96.60;;;;;;4993144;28;92603;-71
2022/04/29 03:40:44;;;;;;;14.80;9.13;;;7.20;96.70;;;;;;4994281;28;92546;-71
2022/04/29 03:43:12;;;;;;;14.23;8.68;;;7.20;96.80;;;;;;4993396;28;95717;-71
2022/04/29 03:45:44;;;;;;;15.75;9.20;;;7.10;96.80;;;;;;5009721;28;95193;-71
2022/04/29 03:48:13;;;;;;;15.02;9.18;;;7.10;96.90;;;;;;4993679;28;92469;-71
2022/04/29 03:50:51;;;;;;;16.83;9.18;;;7.10;96.90;;;;;;4994267;28;92172;-71
2022/04/29 03:53:23;;;;;;;14.15;9.63;;;7.10;97.00;;;;;;5009839;28;95617;-71
2022/04/29 03:55:59;;;;;;;13.15;8.38;;;7.10;97.00;;;;;;4993639;28;94282;-71
2022/04/29 03:58:26;;;;;;;17.80;9.93;;;7.10;97.10;;;;;;4992396;28;94929;-71
2022/04/29 04:00:54;;;;;;;12.45;8.80;;;7.10;97.10;;;;;;5010072;28;92588;-71
2022/04/29 04:03:47;;;;;;;15.73;9.02;;;7.10;97.00;;;;;;4991454;28;94055;-71
2022/04/29 04:09:05;;;;;;;15.25;9.00;;;7.20;97.10;;;;;;4994405;28;92543;-71
2022/04/29 04:11:33;;;;;;;16.05;8.40;;;7.20;97.10;;;;;;4997017;28;92520;-71
2022/04/29 04:14:00;;;;;;;15.57;8.45;;;7.30;97.00;;;;;;4996795;28;95690;-71
2022/04/29 04:16:38;;;;;;;17.25;8.68;;;7.30;97.00;;;;;;5012402;28;95146;-71
2022/04/29 04:19:05;;;;;;;14.20;8.65;;;7.40;96.90;;;;;;4998343;28;92813;-71
2022/04/29 04:21:33;;;;;;;15.23;8.38;;;7.50;96.80;;;;;;5013209;28;92600;-71
2022/04/29 04:24:01;;;;;;;14.43;8.15;;;7.50;96.80;;;;;;4978962;28;97723;-71
2022/04/29 04:26:28;;;;;;;13.73;8.13;;;7.60;96.90;;;;;;4996512;28;98052;-71
2022/04/29 04:28:59;;;;;;;14.93;8.30;;;7.60;96.80;;;;;;4996980;28;92931;-71
2022/04/29 04:31:33;;;;;;;13.77;8.05;;;7.60;96.70;;;;;;4996669;28;92502;-71
2022/04/29 04:34:49;;;;;;;11.63;8.02;;;7.70;96.70;;;;;;4996723;28;96133;-71
2022/04/29 04:36:52;;;;;;;11.80;8.48;;;7.80;96.70;;;;;;5029610;28;95035;-71
2022/04/29 04:39:22;;;;;;;12.43;8.05;;;7.80;96.60;;;;;;5012316;28;92723;-71
2022/04/29 04:41:52;;;;;;;10.88;7.65;;;7.90;96.50;;;;;;5013096;28;91727;-71
2022/04/29 04:44:26;;;;;;;16.13;8.70;;;7.90;96.40;;;;;;4996016;28;94303;-71
2022/04/29 04:46:55;;;;;;;12.65;7.47;;;8.00;96.30;;;;;;4996465;28;94472;-71
2022/04/29 04:49:42;;;;;;;11.23;7.88;;;8.10;96.20;;;;;;4995757;28;94826;-71
2022/04/29 04:52:18;;;;;;;13.48;7.22;;;8.10;96.10;;;;;;5029620;28;92423;-71
2022/04/29 04:54:46;;;;;;;13.32;7.78;;;8.20;96.10;;;;;;4996323;28;95282;-71
2022/04/29 04:57:13;;;;;;;13.50;7.53;;;8.20;96.10;;;;;;4996046;28;95253;-71
2022/04/29 04:59:40;;;;;;;13.32;7.15;;;8.30;96.00;;;;;;4996256;28;92404;-71
2022/04/29 05:02:07;;;;;;;9.90;7.43;;;8.30;96.00;;;;;;4997643;28;92450;-71
2022/04/29 05:05:01;;;;;;;12.88;8.10;;;8.40;95.80;;;;;;4980312;28;93067;-71
2022/04/29 05:07:42;;;;;;;8.20;6.82;;;8.40;95.90;;;;;;4996283;28;95620;-71
2022/04/29 05:10:12;;;;;;;11.23;7.63;;;8.60;95.80;;;;;;4995731;28;92485;-71
2022/04/29 05:12:44;;;;;;;10.60;6.70;;;8.60;95.70;;;;;;4995958;28;92921;-71
2022/04/29 05:15:24;;;;;;;10.20;6.40;;;8.80;95.70;;;;;;5008916;28;98144;-71
2022/04/29 05:17:52;;;;;;;9.70;6.93;;;8.80;95.60;;;;;;5012421;28;97718;-71
2022/04/29 05:20:25;;;;;;;12.00;7.68;;;9.00;95.50;;;;;;4994538;28;92930;-71
2022/04/29 05:22:52;;;;;;;13.73;7.32;;;9.10;95.30;;;;;;4995998;28;92587;-71
2022/04/29 05:25:19;;;;;;;11.45;7.25;;;9.20;95.10;;;;;;5029147;28;95708;-71
2022/04/29 05:28:05;;;;;;;8.05;6.82;;;9.40;94.90;;;;;;4994290;28;92641;-71
2022/04/29 05:30:38;;;;;;;11.00;7.43;;;9.50;94.70;;;;;;4996163;28;92450;-71
2022/04/29 05:33:21;;;;;;;9.95;7.30;;;9.60;94.60;;;;;;4995882;28;91827;-71
2022/04/29 05:36:08;;;;;;;7.85;6.85;;;9.80;94.30;;;;;;4994657;28;92694;-71
2022/04/29 05:44:40;;;;;;;12.45;6.95;;;10.30;93.70;;;;;;4997209;28;92461;-71
2022/04/29 05:47:08;;;;;;;9.27;6.72;;;10.60;93.40;;;;;;5029104;28;95609;-71
2022/04/29 05:49:35;;;;;;;8.35;6.88;;;10.90;93.00;;;;;;5012125;28;95521;-71
2022/04/29 05:52:03;;;;;;;11.25;6.38;;;11.10;92.70;;;;;;4995543;28;92519;-71
2022/04/29 05:54:34;;;;;;;11.93;6.40;;;11.20;92.30;;;;;;4995242;28;92501;-71
2022/04/29 05:57:05;;;;;;;9.75;6.25;;;11.40;92.20;;;;;;5011243;28;96631;-71
2022/04/29 05:59:33;;;;;;;9.13;6.72;;;11.50;92.00;;;;;;4995299;28;95618;-72
2022/04/29 06:02:23;;;;;;;8.48;6.30;;;11.70;91.90;;;;;;5028826;28;92421;-71
2022/04/29 06:05:09;;;;;;;9.50;5.57;;;11.90;91.80;;;;;;5009771;28;92862;-72
2022/04/29 06:07:37;;;;;;;9.30;6.22;;;11.90;91.20;;;;;;4993768;28;97542;-72
2022/04/29 06:10:06;;;;;;;9.00;6.57;;;12.00;91.10;;;;;;4995215;28;97707;-71
2022/04/29 06:12:39;;;;;;;12.13;6.88;;;12.10;90.70;;;;;;4995132;28;92396;-72
2022/04/29 06:15:15;;;;;;;7.30;5.78;;;12.20;90.60;;;;;;4994974;28;92495;-72
2022/04/29 06:18:09;;;;;;;10.25;5.85;;;12.20;90.30;;;;;;4994928;28;95452;-71
2022/04/29 06:20:45;;;;;;;8.25;5.57;;;12.20;90.30;;;;;;4993788;28;92804;-71
2022/04/29 06:23:32;;;;;;;6.82;5.05;;;12.30;89.10;;;;;;4994826;28;92392;-71
2022/04/29 06:26:01;;;;;;;6.68;5.30;;;12.30;88.10;;;;;;5012565;28;91781;-71
2022/04/29 06:28:32;;;;;;;6.60;5.43;;;12.30;87.90;;;;;;4994643;28;95269;-71
2022/04/29 06:31:00;;;;;;;5.63;4.15;;;12.40;87.90;;;;;;5011195;28;94423;-71
2022/04/29 06:33:56;;;;;;;6.53;4.63;;;12.40;87.20;;;;;;5006743;28;94946;-71
2022/04/29 06:36:23;;;;;;;6.88;4.55;;;12.40;85.70;;;;;;4994717;28;92468;-71
2022/04/29 06:38:54;;;;;;;5.60;4.25;;;12.50;85.80;;;;;;5010482;28;95263;-71
2022/04/29 06:41:41;;;;;;;6.28;4.28;;;12.40;84.90;;;;;;5022321;28;92843;-71
2022/04/29 06:44:16;;;;;;;5.07;4.22;;;12.40;85.70;;;;;;4994693;28;92592;-71
2022/04/29 06:47:03;;;;;;;8.73;4.47;;;12.50;85.00;;;;;;4995555;28;92559;-71
2022/04/29 06:49:51;;;;;;;5.20;3.70;;;12.50;84.30;;;;;;5021705;28;92686;-71
2022/04/29 06:52:49;;;;;;;4.10;3.70;;;12.40;84.40;;;;;;4995686;28;93820;-71
2022/04/29 06:55:23;;;;;;;7.18;4.00;;;12.30;84.50;;;;;;4994733;28;92459;-71
2022/04/29 06:57:50;;;;;;;5.82;4.50;;;12.40;84.30;;;;;;4994487;28;92593;-71
2022/04/29 07:00:21;;;;;;;9.35;4.30;;;12.40;84.20;;;;;;4993125;28;98253;-71
2022/04/29 07:02:51;;;;;;;6.00;4.03;;;12.40;84.40;;;;;;4994163;28;97944;-71
2022/04/29 07:05:19;;;;;;;6.47;3.00;;;12.40;84.60;;;;;;4994412;28;92656;-71
2022/04/29 07:07:49;;;;;;;5.68;2.85;;;12.40;83.70;;;;;;4994232;28;92470;-71
2022/04/29 07:10:34;;;;;;;4.70;2.80;;;12.40;83.00;;;;;;4994461;28;92658;-71
2022/04/29 07:13:28;;;;;;;8.27;3.10;;;12.30;82.90;;;;;;4977283;28;92768;-71
2022/04/29 07:15:55;;;;;;;6.47;2.97;;;12.30;83.20;;;;;;5011083;28;92634;-71
2022/04/29 07:18:51;;;;;;;7.60;3.60;;;12.20;83.30;;;;;;4958069;28;91755;-71
2022/04/29 07:21:19;;;;;;;4.30;2.58;;;12.20;84.00;;;;;;4993715;28;95446;-71
2022/04/29 07:23:47;;;;;;;4.05;2.80;;;12.30;82.40;;;;;;4995143;28;93047;-71
2022/04/29 07:26:15;;;;;;;4.43;3.15;;;12.30;82.50;;;;;;4993034;28;94866;-71
2022/04/29 07:28:42;;;;;;;5.38;3.30;;;12.20;82.70;;;;;;4995226;28;92460;-71
2022/04/29 07:31:09;;;;;;;5.25;3.40;;;12.20;83.10;;;;;;5010256;28;95178;-71
2022/04/29 07:34:02;;;;;;;8.50;3.83;;;12.30;82.90;;;;;;5019447;28;94001;-71
2022/04/29 07:42:21;;;;;;;6.03;3.88;;;12.60;82.20;;;;;;5027242;28;95854;-71
2022/04/29 07:44:48;;;;;;;4.65;3.67;;;12.70;81.20;;;;;;4996893;28;95393;-71
2022/04/29 07:47:22;;;;;;;5.45;3.63;;;12.80;81.60;;;;;;4997576;28;92381;-71
2022/04/29 07:50:08;;;;;;;4.63;3.30;;;12.70;81.30;;;;;;4997297;28;92602;-71
2022/04/29 07:52:35;;;;;;;6.93;4.15;;;12.90;81.60;;;;;;4995720;28;98172;-71
2022/04/29 07:55:02;;;;;;;6.13;4.03;;;13.00;80.80;;;;;;4997282;28;97200;-71
2022/04/29 07:57:29;;;;;;;7.13;4.07;;;13.10;80.10;;;;;;4997318;28;92479;-71
2022/04/29 07:59:58;;;;;;;5.82;3.67;;;13.20;79.70;;;;;;4997227;28;92499;-71
2022/04/29 08:02:43;;;;;;;4.15;3.78;;;13.30;79.60;;;;;;4997430;28;92826;-71
2022/04/29 08:05:14;;;;;;;5.45;3.38;;;13.40;78.40;;;;;;4996818;28;95184;-71
2022/04/29 08:07:41;;;;;;;5.30;3.17;;;13.90;78.40;;;;;;4998337;28;92398;-71
2022/04/29 08:10:09;;;;;;;4.95;3.35;;;14.30;76.60;;;;;;4997544;28;91695;-71
2022/04/29 08:12:37;;;;;;;6.63;3.10;;;14.70;75.30;;;;;;5012927;28;96218;-71
2022/04/29 08:15:28;;;;;;;4.65;3.38;;;15.20;74.40;;;;;;4966327;28;92798;-72
2022/04/29 08:18:08;;;;;;;6.18;2.95;;;15.40;73.30;;;;;;4995665;28;94886;-72
2022/04/29 08:20:36;;;;;;;3.88;2.60;;;15.50;72.90;;;;;;4996120;28;92541;-70
2022/04/29 08:23:03;;;;;;;6.45;4.20;;;15.40;70.70;;;;;;4996708;28;95568;-69
2022/04/29 08:25:30;;;;;;;7.20;4.28;;;15.50;70.10;;;;;;5013465;28;95312;-70
2022/04/29 08:27:59;;;;;;;7.10;3.15;;;15.60;69.30;;;;;;5013394;28;92799;-69
2022/04/29 08:30:30;;;;;;;7.00;3.38;;;15.50;68.50;;;;;;4980283;28;92490;-70
2022/04/29 08:32:59;;;;;;;3.35;3.03;;;15.40;69.50;;;;;;5029742;28;95679;-70
2022/04/29 08:35:35;;;;;;;8.07;3.53;;;15.50;69.90;;;;;;4997025;28;95063;-72
2022/04/29 08:38:02;;;;;;;5.03;3.40;;;15.60;69.10;;;;;;4996681;28;92480;-72
2022/04/29 08:40:43;;;;;;;4.35;2.70;;;15.80;68.50;;;;;;4996539;28;92599;-72
2022/04/29 08:43:13;;;;;;;6.32;3.75;;;15.80;68.00;;;;;;4994998;28;97644;-72
2022/04/29 08:45:42;;;;;;;5.45;3.53;;;15.70;68.30;;;;;;5012480;28;97882;-72
2022/04/29 08:48:31;;;;;;;4.22;2.95;;;15.60;67.70;;;;;;5009459;28;92441;-72
2022/04/29 08:50:59;;;;;;;4.95;2.40;;;15.70;67.70;;;;;;4997912;28;93015;-72
2022/04/29 08:53:27;;;;;;;5.68;3.33;;;15.60;67.20;;;;;;4997577;28;93230;-72
2022/04/29 08:58:41;;;;;;;5.35;3.13;;;15.70;67.50;;;;;;4997778;28;92501;-72
2022/04/29 09:01:10;;;;;;;5.97;3.35;;;15.90;66.60;;;;;;4998092;28;91694;-71
2022/04/29 09:03:38;;;;;;;4.15;2.75;;;16.00;66.30;;;;;;4996185;28;93264;-72
2022/04/29 09:06:07;;;;;;;4.65;3.30;;;16.20;65.10;;;;;;4995806;28;96174;-72
2022/04/29 09:08:42;;;;;;;7.60;3.58;;;16.40;65.00;;;;;;5011680;28;94858;-72
2022/04/29 09:11:11;;;;;;;3.17;2.40;;;16.70;63.60;;;;;;5012524;28;92575;-72
2022/04/29 09:13:39;;;;;;;4.07;2.80;;;16.70;63.70;;;;;;5029204;28;93176;-72
2022/04/29 09:16:12;;;;;;;6.78;3.50;;;16.50;63.70;;;;;;5029278;28;92936;-71
2022/04/29 09:18:44;;;;;;;;;;;16.60;63.90;;;;;;4996286;28;92495;-71
2022/04/29 09:21:15;;;;;;;5.57;2.67;;;16.40;63.60;;;;;;5013562;28;92467;-71
2022/04/29 09:23:49;;;;;;;4.30;2.78;;;16.50;64.50;;;;;;4997350;28;93477;-71
2022/04/29 09:26:41;;;;;;;3.83;2.95;;;16.40;64.20;;;;;;4997034;28;92442;-71
2022/04/29 09:29:29;;;;;;;3.40;2.33;;;16.20;64.50;;;;;;5023152;28;92519;-72
2022/04/29 09:32:14;;;;;;;5.10;3.00;;;16.10;64.60;;;;;;4995930;28;92426;-72
2022/04/29 09:34:58;;;;;;;3.50;2.83;;;15.90;64.80;;;;;;4993825;28;95243;-72
2022/04/29 09:37:28;;;;;;;4.53;2.88;;;16.00;64.90;;;;;;4996810;28;96094;-72
2022/04/29 09:40:04;;;;;;;5.53;2.70;;;15.80;65.10;;;;;;4995590;28;92456;-72
2022/04/29 09:42:43;;;;;;;6.80;2.50;;;15.80;65.30;;;;;;4997084;28;92421;-71
2022/04/29 09:45:22;;;;;;;6.18;2.78;;;15.80;65.10;;;;;;4995997;28;93694;-71
2022/04/29 09:47:58;;;;;;;5.80;2.95;;;15.70;66.10;;;;;;4996120;28;97029;-71
2022/04/29 09:50:49;;;;;;;4.05;2.90;;;15.60;66.10;;;;;;4997139;28;92330;-71
2022/04/29 09:53:18;;;;;;;5.20;2.70;;;15.60;66.60;;;;;;4997628;28;91657;-72
2022/04/29 09:56:14;;;;;;;4.72;3.30;;;15.50;66.70;;;;;;5028886;28;94411;-70
2022/04/29 09:58:41;;;;;;;4.53;3.88;;;15.80;65.90;;;;;;4982909;28;92930;-72
2022/04/29 10:01:10;;;;;;;3.47;2.45;;;15.80;66.10;;;;;;4995390;28;94809;-70
2022/04/29 10:03:38;;;;;;;7.07;3.60;;;15.80;65.70;;;;;;4995464;28;92571;-70
2022/04/29 10:06:10;;;;;;;6.90;3.50;;;16.00;65.90;;;;;;4994213;28;95962;-70
2022/04/29 10:08:38;;;;;;;4.20;3.33;;;16.30;65.00;;;;;;5011151;28;95494;-70
2022/04/29 10:11:05;;;;;;;6.85;3.60;;;16.50;63.90;;;;;;4995146;28;93028;-70
2022/04/29 10:13:34;;;;;;;3.88;3.17;;;16.80;63.20;;;;;;5028586;28;92517;-71
2022/04/29 10:16:19;;;;;;;4.75;2.88;;;17.00;62.50;;;;;;5028233;27;95779;-70
2022/04/29 10:22:33;;;;;;;4.85;3.63;;;17.10;62.20;;;;;;4996074;28;92471;-70
2022/04/29 10:25:05;;;;;;;8.52;3.38;;;17.30;61.70;;;;;;4994871;28;92457;-70
2022/04/29 10:27:33;;;;;;;4.80;3.53;;;17.00;60.60;;;;;;4995024;28;95558;-70
2022/04/29 10:30:01;;;;;;;3.35;2.97;;;16.90;61.30;;;;;;5010993;28;97865;-70
2022/04/29 10:32:28;;;;;;;6.13;3.28;;;16.80;62.10;;;;;;5028261;28;92515;-70
2022/04/29 10:34:55;;;;;;;6.28;3.47;;;16.70;62.50;;;;;;4996051;28;92454;-70
2022/04/29 10:37:32;;;;;;;3.78;2.65;;;16.70;62.20;;;;;;4994791;28;95116;-70
2022/04/29 10:40:12;;;;;;;6.30;4.53;;;16.80;62.00;;;;;;4995799;28;92854;-70
2022/04/29 10:43:05;;;;;;;5.10;3.90;;;16.70;62.70;;;;;;4994684;28;92470;-70
2022/04/29 10:45:32;;;;;;;3.45;2.75;;;16.60;63.70;;;;;;4994876;28;91782;-70
2022/04/29 10:48:33;;;;;;;5.03;3.50;;;16.40;63.80;;;;;;5010511;28;95602;-70
2022/04/29 10:51:46;;;;;;;5.30;4.57;;;16.30;64.40;;;;;;4994373;28;92487;-70
2022/04/29 10:54:15;;;;;;;4.55;3.08;;;15.90;65.10;;;;;;4994936;28;94754;-70
2022/04/29 10:57:06;;;;;;;3.92;3.00;;;15.70;66.10;;;;;;4993862;28;92420;-70
2022/04/29 10:59:51;;;;;;;5.35;4.00;;;15.70;65.90;;;;;;5010856;28;95650;-70
2022/04/29 11:02:25;;;;;;;6.28;3.65;;;15.80;65.70;;;;;;4994096;28;95386;-70
2022/04/29 11:04:53;;;;;;;5.00;3.53;;;15.90;65.70;;;;;;4994195;28;92433;-70
2022/04/29 11:07:45;;;;;;;6.70;3.58;;;16.00;64.30;;;;;;5027800;28;92434;-70
2022/04/29 11:10:22;;;;;;;3.10;2.83;;;16.20;62.50;;;;;;4993794;28;95513;-70
2022/04/29 11:12:58;;;;;;;4.38;2.67;;;16.10;62.50;;;;;;4994509;28;94542;-70
2022/04/29 11:16:16;;;;;;;4.25;3.20;;;16.10;62.90;;;;;;4994981;28;92537;-70
2022/04/29 11:19:34;;;;;;;5.20;3.22;;;16.10;62.90;;;;;;4977467;28;93718;-70
2022/04/29 11:24:51;;;;;;;4.28;3.60;;;16.00;64.60;;;;;;4993780;28;96759;-70
2022/04/29 11:27:39;;;;;;;4.47;4.03;;;15.70;63.80;;;;;;4987679;28;92493;-70
2022/04/29 11:30:45;;;;;;;5.82;4.05;;;15.70;65.90;;;;;;4993822;28;93766;-70
2022/04/29 11:33:22;;;;;;;4.47;4.07;;;15.60;66.10;;;;;;5026425;28;93103;-70
2022/04/29 11:36:01;;;;;;;4.00;3.60;;;15.60;66.40;;;;;;5010796;28;93049;-70
2022/04/29 11:38:30;;;;;;;3.58;3.28;;;15.50;65.80;;;;;;5027537;28;92567;-72
2022/04/29 11:41:00;;;;;;;4.03;3.67;;;15.20;65.90;;;;;;4995741;28;91765;-71
2022/04/29 11:43:27;;;;;;;5.72;4.55;;;15.10;67.10;;;;;;4995109;28;93371;-71
2022/04/29 11:46:07;;;;;;;5.68;4.65;;;14.90;68.60;;;;;;4994997;28;94401;-71
2022/04/29 11:48:53;;;;;;;6.05;3.97;;;15.00;69.30;;;;;;4992538;28;95062;-71
2022/04/29 11:51:21;;;;;;;5.85;4.88;;;15.00;68.80;;;;;;4993555;28;94166;-71
2022/04/29 11:53:59;;;;;;;6.55;4.28;;;15.00;69.30;;;;;;4993721;28;95598;-71
2022/04/29 11:56:42;;;;;;;5.57;4.35;;;15.10;68.50;;;;;;4995002;28;93027;-71
2022/04/29 11:59:11;;;;;;;5.15;4.38;;;15.10;68.90;;;;;;4993616;28;92527;-70
2022/04/29 12:01:40;;;;;;;4.18;3.63;;;14.90;69.50;;;;;;4995087;28;92497;-71
2022/04/29 12:04:13;;;;;;;6.72;4.85;;;14.90;68.20;;;;;;5026775;28;95033;-71
2022/04/29 12:06:56;;;;;;;4.63;4.18;;;14.90;68.80;;;;;;4995320;28;93119;-71
2022/04/29 12:09:34;;;;;;;5.57;4.35;;;15.00;68.70;;;;;;4993289;28;92504;-71
2022/04/29 12:12:01;;;;;;;5.60;5.10;;;15.00;69.00;;;;;;4995083;28;92359;-71
2022/04/29 12:14:35;;;;;;;7.70;4.75;;;15.10;69.30;;;;;;4992046;28;98214;-71
2022/04/29 12:17:04;;;;;;;5.07;4.70;;;15.00;68.70;;;;;;5025858;28;103299;-71
2022/04/29 12:19:31;;;;;;;5.55;5.00;;;15.00;68.80;;;;;;4992992;28;92505;-71
2022/04/29 12:22:00;;;;;;;5.00;3.97;;;15.00;68.50;;;;;;5026794;28;92558;-71
2022/04/29 12:24:39;;;;;;;4.20;3.58;;;14.90;68.50;;;;;;4993066;28;95727;-71
2022/04/29 12:27:08;;;;;;;6.20;4.28;;;15.00;69.00;;;;;;4993023;28;95444;-71
2022/04/29 12:34:48;;;;;;;5.25;4.22;;;15.10;68.70;;;;;;4994875;28;92361;-71
2022/04/29 12:35:31;;;;;;;7.15;4.80;;;15.10;67.10;;;;;;4996371;28;94549;-71
2022/04/29 12:37:59;;;;;;;5.43;4.80;;;15.20;67.10;;;;;;4997916;28;93166;-71
2022/04/29 12:40:44;;;;;;;6.72;4.10;;;15.30;67.40;;;;;;5009808;28;95490;-71
2022/04/29 12:43:12;;;;;;;5.00;4.13;;;15.30;67.30;;;;;;5029662;28;92528;-71
2022/04/29 12:45:40;;;;;;;8.00;4.60;;;15.30;67.10;;;;;;5029648;28;93164;-71
2022/04/29 12:48:17;;;;;;;6.15;4.82;;;15.30;67.10;;;;;;5027051;27;92963;-71
2022/04/29 12:50:51;;;;;;;5.30;4.80;;;15.30;66.50;;;;;;4996420;28;92569;-71
2022/04/29 12:53:19;;;;;;;4.35;3.90;;;15.50;66.20;;;;;;5012659;28;92593;-71
2022/04/29 12:55:51;;;;;;;4.97;4.05;;;15.60;65.60;;;;;;4996257;28;96218;-71
2022/04/29 12:58:26;;;;;;;4.80;4.30;;;15.80;65.50;;;;;;4996341;28;95263;-71
2022/04/29 13:00:56;;;;;;;4.82;3.88;;;16.00;64.80;;;;;;4997963;28;92333;-71
2022/04/29 13:03:29;;;;;;;3.58;3.10;;;16.00;63.70;;;;;;4997535;28;92440;-71
2022/04/29 13:06:32;;;;;;;6.85;4.20;;;16.00;63.70;;;;;;4964456;28;95445;-71
2022/04/29 13:09:02;;;;;;;4.60;3.83;;;15.60;64.00;;;;;;4989028;28;95420;-71
2022/04/29 13:11:30;;;;;;;5.30;4.57;;;15.90;64.30;;;;;;4993264;28;104890;-72
2022/04/29 13:13:59;;;;;;;4.70;3.72;;;16.10;64.30;;;;;;4979799;28;92550;-72
2022/04/29 13:16:26;;;;;;;3.83;3.45;;;16.00;63.60;;;;;;5012499;28;95502;-72
2022/04/29 13:18:53;;;;;;;4.63;3.08;;;16.00;63.20;;;;;;4996105;28;95628;-72
2022/04/29 13:21:21;;;;;;;6.75;4.45;;;15.90;62.50;;;;;;4995667;28;92449;-72
2022/04/29 13:23:55;;;;;;;3.83;3.13;;;15.80;62.90;;;;;;4996295;28;91811;-72
2022/04/29 13:26:36;;;;;;;5.32;3.53;;;15.80;63.50;;;;;;4995307;28;95698;-72
2022/04/29 13:29:04;;;;;;;4.00;3.60;;;15.80;62.60;;;;;;4997199;28;93098;-72
2022/04/29 13:31:30;;;;;;;4.07;3.35;;;15.80;62.90;;;;;;4994823;28;94959;-72
2022/04/29 13:33:57;;;;;;;4.55;3.20;;;15.80;63.50;;;;;;4995939;28;92846;-72
2022/04/29 13:36:26;;;;;;;4.15;3.28;;;15.80;63.00;;;;;;4995881;28;93298;-71
2022/04/29 13:38:53;;;;;;;5.20;3.97;;;15.70;63.50;;;;;;4996883;28;93063;-72
2022/04/29 13:41:23;;;;;;;4.40;3.90;;;15.60;63.70;;;;;;5028870;27;92481;-72
2022/04/29 13:43:52;;;;;;;5.85;3.47;;;15.60;63.50;;;;;;4995767;28;92480;-71
2022/04/29 13:46:36;;;;;;;3.70;3.40;;;15.80;63.00;;;;;;4995665;28;93371;-71
2022/04/29 13:49:04;;;;;;;4.13;3.65;;;15.80;62.20;;;;;;4995404;28;101742;-72